createdAt,value
2022-12-11T00:01:15.507Z,19.25
2022-12-11T00:03:42.302Z,20.25
2022-12-11T00:06:10.002Z,19.02
2022-12-11T00:08:37.092Z,19.33
2022-12-11T00:11:03.909Z,21.00
2022-12-11T00:13:30.766Z,19.92
2022-12-11T00:16:00.506Z,19.17
2022-12-11T00:18:27.215Z,16.35
2022-12-11T00:20:54.030Z,17.50
2022-12-11T00:23:21.167Z,17.35
2022-12-11T00:25:47.949Z,17.17
2022-12-11T00:28:15.597Z,15.82
2022-12-11T00:30:42.976Z,18.60
2022-12-11T00:33:10.068Z,16.13
2022-12-11T00:35:41.004Z,16.48
2022-12-11T00:38:07.725Z,17.48
2022-12-11T00:40:35.405Z,17.80
2022-12-11T00:43:02.230Z,17.23
2022-12-11T00:45:28.923Z,17.42
2022-12-11T00:47:55.752Z,17.63
2022-12-11T00:50:22.407Z,18.05
2022-12-11T00:52:49.066Z,19.23
2022-12-11T00:55:15.840Z,17.35
2022-12-11T00:57:42.580Z,17.80
2022-12-11T01:00:09.784Z,20.15
2022-12-11T01:02:36.593Z,19.30
2022-12-11T01:05:04.406Z,20.23
2022-12-11T01:07:31.423Z,19.30
2022-12-11T01:10:11.963Z,18.65
2022-12-11T01:12:38.566Z,17.35
2022-12-11T01:15:09.623Z,18.25
2022-12-11T01:17:36.646Z,17.63
2022-12-11T01:20:04.376Z,17.10
2022-12-11T01:22:31.527Z,17.33
2022-12-11T01:24:58.297Z,17.92
2022-12-11T01:27:28.148Z,17.63
2022-12-11T01:29:54.951Z,18.27
2022-12-11T01:32:21.628Z,16.95
2022-12-11T01:34:48.622Z,17.02
2022-12-11T01:37:15.266Z,14.73
2022-12-11T01:39:43.495Z,18.40
2022-12-11T01:42:11.332Z,17.08
2022-12-11T01:44:37.942Z,15.98
2022-12-11T01:47:04.820Z,16.52
2022-12-11T01:49:31.866Z,15.63
2022-12-11T01:52:01.621Z,18.30
2022-12-11T01:54:28.743Z,18.42
2022-12-11T01:56:56.881Z,18.63
2022-12-11T01:59:24.981Z,18.92
2022-12-11T02:01:55.190Z,18.55
2022-12-11T02:04:21.964Z,18.20
2022-12-11T02:06:50.437Z,18.98
2022-12-11T02:09:19.381Z,18.08
2022-12-11T02:11:45.939Z,16.20
2022-12-11T02:14:17.535Z,19.17
2022-12-11T02:16:51.847Z,19.25
2022-12-11T02:19:28.518Z,20.02
2022-12-11T02:21:57.208Z,18.50
2022-12-11T02:24:26.909Z,19.35
2022-12-11T02:27:03.108Z,19.75
2022-12-11T02:29:29.788Z,16.58
2022-12-11T02:32:16.747Z,20.98
2022-12-11T02:34:46.673Z,18.65
2022-12-11T02:37:18.040Z,20.38
2022-12-11T02:39:45.766Z,19.02
2022-12-11T02:42:13.770Z,19.20
2022-12-11T02:44:41.423Z,92.55
2022-12-11T02:47:08.909Z,42.63
2022-12-11T02:49:35.774Z,20.00
2022-12-11T02:52:03.719Z,24.67
2022-12-11T02:54:31.998Z,22.15
2022-12-11T02:57:08.850Z,35.50
2022-12-11T02:59:40.748Z,23.80
2022-12-11T03:02:08.630Z,32.05
2022-12-11T03:04:36.863Z,31.17
2022-12-11T03:07:12.407Z,27.15
2022-12-11T03:09:40.363Z,21.38
2022-12-11T03:12:09.797Z,18.23
2022-12-11T03:14:37.553Z,19.98
2022-12-11T03:17:24.500Z,23.73
2022-12-11T03:20:05.287Z,31.98
2022-12-11T03:22:37.492Z,35.75
2022-12-11T03:25:07.337Z,23.40
2022-12-11T03:27:37.089Z,27.80
2022-12-11T03:30:06.731Z,63.55
2022-12-11T03:32:39.523Z,29.02
2022-12-11T03:35:06.402Z,36.50
2022-12-11T03:37:34.740Z,46.33
2022-12-11T03:40:05.444Z,21.20
2022-12-11T03:42:32.823Z,23.98
2022-12-11T03:45:00.354Z,31.80
2022-12-11T03:47:29.047Z,25.33
2022-12-11T03:49:56.548Z,21.80
2022-12-11T03:52:23.706Z,23.85
2022-12-11T03:54:50.925Z,18.85
2022-12-11T03:57:20.728Z,33.70
2022-12-11T03:59:47.578Z,23.35
2022-12-11T04:02:14.234Z,29.08
2022-12-11T04:04:41.497Z,29.60
2022-12-11T04:07:08.817Z,33.13
2022-12-11T04:09:35.882Z,33.17
2022-12-11T04:12:02.538Z,42.92
2022-12-11T04:14:43.086Z,29.00
2022-12-11T04:17:10.027Z,20.38
2022-12-11T04:19:50.710Z,33.60
2022-12-11T04:22:32.154Z,19.25
2022-12-11T04:24:59.140Z,27.65
2022-12-11T04:27:39.908Z,16.63
2022-12-11T04:30:09.183Z,20.95
2022-12-11T04:32:35.879Z,23.48
2022-12-11T04:35:02.911Z,27.10
2022-12-11T04:37:29.745Z,18.92
2022-12-11T04:39:56.462Z,15.73
2022-12-11T04:42:23.330Z,25.25
2022-12-11T04:44:49.922Z,21.83
2022-12-11T04:47:19.559Z,13.23
2022-12-11T04:49:53.749Z,27.75
2022-12-11T04:52:20.540Z,18.85
2022-12-11T04:54:47.531Z,33.63
2022-12-11T04:57:14.169Z,24.88
2022-12-11T04:59:40.962Z,18.35
2022-12-11T05:02:32.873Z,28.85
2022-12-11T05:05:08.266Z,37.83
2022-12-11T05:07:35.330Z,21.35
2022-12-11T05:10:02.070Z,20.25
2022-12-11T05:12:29.810Z,17.35
2022-12-11T05:15:02.709Z,31.35
2022-12-11T05:17:29.431Z,19.85
2022-12-11T05:19:56.081Z,37.88
2022-12-11T05:22:22.943Z,19.27
2022-12-11T05:24:51.710Z,22.05
2022-12-11T05:27:18.365Z,22.02
2022-12-11T05:29:45.099Z,19.13
2022-12-11T05:32:11.841Z,20.10
2022-12-11T05:34:41.713Z,29.33
2022-12-11T05:37:10.480Z,21.63
2022-12-11T05:39:37.907Z,18.27
2022-12-11T05:42:04.701Z,13.95
2022-12-11T05:44:31.406Z,19.20
2022-12-11T05:46:58.184Z,17.75
2022-12-11T05:49:30.626Z,19.00
2022-12-11T05:51:58.353Z,40.53
2022-12-11T05:54:25.009Z,38.35
2022-12-11T05:56:51.729Z,51.33
2022-12-11T05:59:19.905Z,39.40
2022-12-11T06:01:46.679Z,58.95
2022-12-11T06:04:13.645Z,103.22
2022-12-11T06:06:44.198Z,41.58
2022-12-11T06:09:15.421Z,41.83
2022-12-11T06:11:42.065Z,35.28
2022-12-11T06:14:10.335Z,25.35
2022-12-11T06:16:37.260Z,16.30
2022-12-11T06:19:03.916Z,16.52
2022-12-11T06:21:32.236Z,22.33
2022-12-11T06:24:22.116Z,16.27
2022-12-11T06:26:48.862Z,14.73
2022-12-11T06:29:16.059Z,16.83
2022-12-11T06:31:43.202Z,14.38
2022-12-11T06:34:12.961Z,12.73
2022-12-11T06:36:40.587Z,19.15
2022-12-11T06:39:07.232Z,25.10
2022-12-11T06:41:33.953Z,26.27
2022-12-11T06:44:00.666Z,44.60
2022-12-11T06:46:27.380Z,32.75
2022-12-11T06:48:54.076Z,34.95
2022-12-11T06:51:21.887Z,22.52
2022-12-11T06:53:56.041Z,18.13
2022-12-11T06:56:23.347Z,19.63
2022-12-11T06:58:50.019Z,16.20
2022-12-11T07:01:18.568Z,13.18
2022-12-11T07:03:45.413Z,14.38
2022-12-11T07:06:12.334Z,12.57
2022-12-11T07:08:39.053Z,21.15
2022-12-11T07:11:06.893Z,20.80
2022-12-11T07:13:33.840Z,22.48
2022-12-11T07:16:02.115Z,23.50
2022-12-11T07:18:28.833Z,16.58
2022-12-11T07:20:57.602Z,17.13
2022-12-11T07:23:24.462Z,20.05
2022-12-11T07:25:51.079Z,14.55
2022-12-11T07:28:17.733Z,20.80
2022-12-11T07:30:44.505Z,20.02
2022-12-11T07:33:11.352Z,8.93
2022-12-11T07:35:38.102Z,12.90
2022-12-11T07:38:04.838Z,13.05
2022-12-11T07:40:31.843Z,16.63
2022-12-11T07:42:58.556Z,16.13
2022-12-11T07:45:26.547Z,17.95
2022-12-11T07:47:53.270Z,29.05
2022-12-11T07:50:19.995Z,13.13
2022-12-11T07:52:46.766Z,9.05
2022-12-11T07:55:16.704Z,12.25
2022-12-11T07:57:43.435Z,11.77
2022-12-11T08:00:12.713Z,9.23
2022-12-11T08:02:42.143Z,10.77
2022-12-11T08:05:09.194Z,15.75
2022-12-11T08:07:36.242Z,10.40
2022-12-11T08:10:04.304Z,10.00
2022-12-11T08:12:31.037Z,9.52
2022-12-11T08:14:57.903Z,9.60
2022-12-11T08:17:40.307Z,13.82
2022-12-11T08:20:32.239Z,9.88
2022-12-11T08:22:59.399Z,12.10
2022-12-11T08:25:26.247Z,13.55
2022-12-11T08:27:53.077Z,10.20
2022-12-11T08:30:19.893Z,10.98
2022-12-11T08:32:46.548Z,13.88
2022-12-11T08:35:13.423Z,11.15
2022-12-11T08:37:40.292Z,9.50
2022-12-11T08:40:07.807Z,9.90
2022-12-11T08:42:35.167Z,10.10
2022-12-11T08:45:11.422Z,9.50
2022-12-11T08:47:38.773Z,12.10
2022-12-11T08:50:05.813Z,13.93
2022-12-11T08:52:34.837Z,16.17
2022-12-11T08:55:03.158Z,12.80
2022-12-11T08:57:29.958Z,12.00
2022-12-11T08:59:56.780Z,14.30
2022-12-11T09:02:23.901Z,13.05
2022-12-11T09:04:51.015Z,24.20
2022-12-11T09:07:17.760Z,12.18
2022-12-11T09:09:44.622Z,12.55
2022-12-11T09:12:11.479Z,12.57
2022-12-11T09:14:38.399Z,11.88
2022-12-11T09:17:05.715Z,11.98
2022-12-11T09:19:32.762Z,11.43
2022-12-11T09:22:08.967Z,11.85
2022-12-11T09:24:36.309Z,11.35
2022-12-11T09:27:04.112Z,11.95
2022-12-11T09:29:30.740Z,10.93
2022-12-11T09:31:57.435Z,12.35
2022-12-11T09:34:29.145Z,11.07
2022-12-11T09:36:56.667Z,11.98
2022-12-11T09:39:23.355Z,30.35
2022-12-11T09:41:56.036Z,40.13
2022-12-11T09:44:28.693Z,15.13
2022-12-11T09:46:55.505Z,26.27
2022-12-11T09:49:24.829Z,36.53
2022-12-11T09:51:59.538Z,20.98
2022-12-11T09:54:26.976Z,22.63
2022-12-11T09:57:03.227Z,19.70
2022-12-11T09:59:53.113Z,15.32
2022-12-11T10:02:19.977Z,15.60
2022-12-11T10:05:00.696Z,15.05
2022-12-11T10:07:30.871Z,13.38
2022-12-11T10:10:07.958Z,13.73
2022-12-11T10:12:43.357Z,18.15
2022-12-11T10:15:24.906Z,17.13
2022-12-11T10:17:54.237Z,21.83
2022-12-11T10:20:27.010Z,14.88
2022-12-11T10:22:54.769Z,13.20
2022-12-11T10:25:32.786Z,19.67
2022-12-11T10:28:01.388Z,13.73
2022-12-11T10:30:34.621Z,13.93
2022-12-11T10:33:15.474Z,19.98
2022-12-11T10:35:43.812Z,14.90
2022-12-11T10:38:15.964Z,19.35
2022-12-11T10:40:49.452Z,18.55
2022-12-11T10:43:16.397Z,27.38
2022-12-11T10:45:53.218Z,14.05
2022-12-11T10:48:20.169Z,13.82
2022-12-11T10:50:55.778Z,14.10
2022-12-11T10:53:22.574Z,13.80
2022-12-11T10:55:49.817Z,14.23
2022-12-11T10:58:19.202Z,13.77
2022-12-11T11:00:46.378Z,19.08
2022-12-11T11:03:26.946Z,24.00
2022-12-11T11:06:04.304Z,26.80
2022-12-11T11:08:38.460Z,23.05
2022-12-11T11:11:05.668Z,15.65
2022-12-11T11:13:32.433Z,15.30
2022-12-11T11:16:07.222Z,13.50
2022-12-11T11:21:01.108Z,13.13
2022-12-11T11:23:28.509Z,13.88
2022-12-11T11:25:59.632Z,14.63
2022-12-11T11:28:45.594Z,13.77
2022-12-11T11:31:13.846Z,23.08
2022-12-11T11:33:57.863Z,16.77
2022-12-11T11:36:28.513Z,15.90
2022-12-11T11:39:09.006Z,14.95
2022-12-11T11:42:07.809Z,14.75
2022-12-11T11:44:37.158Z,15.35
2022-12-11T11:47:12.504Z,15.27
2022-12-11T11:49:53.689Z,15.80
2022-12-11T11:52:26.639Z,14.95
2022-12-11T11:54:57.263Z,17.33
2022-12-11T11:57:33.975Z,23.85
2022-12-11T12:00:09.889Z,25.02
2022-12-11T12:02:36.963Z,18.10
2022-12-11T12:05:04.130Z,32.22
2022-12-11T12:07:30.877Z,20.33
2022-12-11T12:10:12.576Z,20.55
2022-12-11T12:12:53.593Z,18.33
2022-12-11T12:15:20.373Z,39.65
2022-12-11T12:17:55.105Z,38.78
2022-12-11T12:20:31.562Z,28.80
2022-12-11T12:23:12.044Z,40.65
2022-12-11T12:25:44.957Z,46.42
2022-12-11T12:28:35.263Z,36.40
2022-12-11T12:31:11.365Z,31.92
2022-12-11T12:33:55.567Z,41.53
2022-12-11T12:36:35.997Z,36.27
2022-12-11T12:39:08.451Z,30.48
2022-12-11T12:41:41.532Z,25.67
2022-12-11T12:44:16.724Z,36.05
2022-12-11T12:46:50.697Z,25.38
2022-12-11T12:49:28.368Z,31.13
2022-12-11T12:51:55.981Z,20.13
2022-12-11T12:54:23.577Z,20.50
2022-12-11T12:56:50.467Z,24.70
2022-12-11T12:59:26.486Z,18.17
2022-12-11T13:01:58.767Z,20.52
2022-12-11T13:07:27.428Z,22.35
2022-12-11T13:10:07.486Z,23.00
2022-12-11T13:12:40.632Z,25.52
2022-12-11T13:15:24.325Z,27.33
2022-12-11T13:17:51.508Z,24.92
2022-12-11T13:20:19.483Z,22.25
2022-12-11T13:22:50.753Z,18.55
2022-12-11T13:25:22.266Z,16.17
2022-12-11T13:27:50.006Z,24.65
2022-12-11T13:30:19.762Z,33.70
2022-12-11T13:33:01.777Z,32.72
2022-12-11T13:35:30.883Z,23.75
2022-12-11T13:38:01.788Z,19.80
2022-12-11T13:40:33.335Z,18.17
2022-12-11T13:43:02.209Z,16.83
2022-12-11T13:45:30.567Z,19.88
2022-12-11T13:47:57.769Z,25.27
2022-12-11T13:50:26.366Z,34.70
2022-12-11T13:52:56.812Z,23.80
2022-12-11T13:55:34.773Z,42.03
2022-12-11T13:58:01.775Z,24.70
2022-12-11T14:00:30.511Z,17.02
2022-12-11T14:05:41.435Z,28.88
2022-12-11T14:08:12.015Z,23.15
2022-12-11T14:10:39.694Z,20.38
2022-12-11T14:13:07.346Z,21.27
2022-12-11T14:15:36.613Z,17.05
2022-12-11T14:18:03.594Z,40.38
2022-12-11T14:20:31.368Z,22.10
2022-12-11T14:23:11.977Z,25.92
2022-12-11T14:25:38.663Z,19.13
2022-12-11T14:28:14.585Z,20.33
2022-12-11T14:30:47.263Z,22.65
2022-12-11T14:33:15.304Z,18.92
2022-12-11T14:35:43.833Z,19.13
2022-12-11T14:38:18.208Z,17.98
2022-12-11T14:40:47.246Z,18.55
2022-12-11T14:43:20.599Z,21.98
2022-12-11T14:45:48.838Z,29.35
2022-12-11T14:48:18.384Z,29.25
2022-12-11T14:50:48.284Z,22.17
2022-12-11T14:53:17.927Z,26.88
2022-12-11T14:55:45.366Z,24.25
2022-12-11T14:58:32.478Z,22.02
2022-12-11T15:01:01.702Z,20.45
2022-12-11T15:03:36.243Z,20.65
2022-12-11T15:06:03.998Z,28.58
2022-12-11T15:08:32.039Z,23.65
2022-12-11T15:11:08.083Z,25.98
2022-12-11T15:13:36.770Z,34.85
2022-12-11T15:16:04.550Z,21.52
2022-12-11T15:18:33.529Z,43.30
2022-12-11T15:21:02.169Z,27.13
2022-12-11T15:23:29.776Z,32.58
2022-12-11T15:25:57.933Z,23.15
2022-12-11T15:28:35.231Z,20.80
2022-12-11T15:31:04.188Z,26.80
2022-12-11T15:33:34.527Z,32.10
2022-12-11T15:36:01.596Z,26.60
2022-12-11T15:38:31.317Z,56.25
2022-12-11T15:40:58.379Z,37.13
2022-12-11T15:43:25.084Z,37.28
2022-12-11T15:45:52.031Z,35.45
2022-12-11T15:48:18.837Z,36.97
2022-12-11T15:50:45.643Z,35.65
2022-12-11T15:53:12.507Z,26.48
2022-12-11T15:55:39.537Z,26.58
2022-12-11T15:58:07.954Z,27.63
2022-12-11T16:00:34.613Z,26.35
2022-12-11T16:03:01.484Z,26.35
2022-12-11T16:05:28.049Z,23.67
2022-12-11T16:07:59.663Z,25.25
2022-12-11T16:10:27.026Z,22.48
2022-12-11T16:12:53.704Z,25.70
2022-12-11T16:15:23.747Z,26.08
2022-12-11T16:17:50.938Z,21.77
2022-12-11T16:20:17.669Z,20.92
2022-12-11T16:22:45.378Z,20.05
2022-12-11T16:25:12.337Z,24.75
2022-12-11T16:27:39.345Z,28.80
2022-12-11T16:30:10.764Z,24.63
2022-12-11T16:32:37.392Z,37.55
2022-12-11T16:35:04.236Z,25.75
2022-12-11T16:37:30.995Z,25.83
2022-12-11T16:39:57.929Z,28.55
2022-12-11T16:42:24.965Z,27.13
2022-12-11T16:44:57.008Z,27.77
2022-12-11T16:47:23.792Z,23.73
2022-12-11T16:52:50.269Z,26.67
2022-12-11T16:55:22.787Z,21.92
2022-12-11T16:57:49.538Z,23.75
2022-12-11T17:00:16.762Z,22.73
2022-12-11T17:02:43.817Z,21.02
2022-12-11T17:05:16.351Z,20.52
2022-12-11T17:07:43.538Z,23.63
2022-12-11T17:10:15.818Z,20.13
2022-12-11T17:12:59.385Z,23.38
2022-12-11T17:15:26.296Z,21.25
2022-12-11T17:17:54.039Z,21.65
2022-12-11T17:20:20.883Z,20.63
2022-12-11T17:22:47.675Z,25.02
2022-12-11T17:25:19.312Z,29.15
2022-12-11T17:27:46.562Z,25.77
2022-12-11T17:30:14.321Z,23.90
2022-12-11T17:32:41.137Z,23.23
2022-12-11T17:35:08.150Z,23.70
2022-12-11T17:37:35.006Z,25.55
2022-12-11T17:40:04.383Z,25.40
2022-12-11T17:42:31.252Z,53.50
2022-12-11T17:44:58.014Z,87.13
2022-12-11T17:47:24.856Z,70.05
2022-12-11T17:49:51.524Z,83.80
2022-12-11T17:52:18.259Z,64.82
2022-12-11T17:55:07.233Z,45.05
2022-12-11T17:57:34.058Z,23.17
2022-12-11T18:00:00.703Z,30.67
2022-12-11T18:02:28.036Z,27.60
2022-12-11T18:04:56.785Z,26.52
2022-12-11T18:07:23.567Z,30.17
2022-12-11T18:10:17.504Z,25.10
2022-12-11T18:12:44.257Z,25.42
2022-12-11T18:15:19.684Z,27.65
2022-12-11T18:17:50.052Z,27.88
2022-12-11T18:20:16.706Z,28.48
2022-12-11T18:22:44.055Z,21.88
2022-12-11T18:25:12.197Z,23.77
2022-12-11T18:27:39.496Z,23.67
2022-12-11T18:30:15.908Z,28.85
2022-12-11T18:32:43.698Z,27.13
2022-12-11T18:35:11.242Z,32.22
2022-12-11T18:37:38.624Z,30.15
2022-12-11T18:40:06.368Z,40.60
2022-12-11T18:42:33.866Z,43.63
2022-12-11T18:45:00.928Z,44.08
2022-12-11T18:47:27.723Z,28.40
2022-12-11T18:52:32.507Z,29.80
2022-12-11T18:54:59.224Z,25.13
2022-12-11T18:57:25.907Z,30.85
2022-12-11T18:59:53.567Z,28.50
2022-12-11T19:02:21.292Z,30.23
2022-12-11T19:04:48.092Z,32.28
2022-12-11T19:07:20.022Z,23.70
2022-12-11T19:09:48.473Z,22.63
2022-12-11T19:12:15.578Z,24.15
2022-12-11T19:14:42.351Z,26.50
2022-12-11T19:17:09.211Z,24.00
2022-12-11T19:19:36.314Z,31.10
2022-12-11T19:22:03.520Z,25.83
2022-12-11T19:24:30.580Z,32.70
2022-12-11T19:26:57.375Z,34.30
2022-12-11T19:29:25.693Z,28.25
2022-12-11T19:31:52.780Z,25.48
2022-12-11T19:34:19.898Z,24.35
2022-12-11T19:36:46.646Z,23.20
2022-12-11T19:39:14.602Z,23.00
2022-12-11T19:41:50.727Z,22.45
2022-12-11T19:44:17.968Z,18.50
2022-12-11T19:46:53.775Z,20.05
2022-12-11T19:49:29.460Z,13.05
2022-12-11T19:51:56.860Z,21.50
2022-12-11T19:54:31.223Z,20.00
2022-12-11T19:56:58.077Z,21.98
2022-12-11T19:59:24.974Z,25.75
2022-12-11T20:01:51.941Z,25.20
2022-12-11T20:04:18.804Z,22.88
2022-12-11T20:06:46.562Z,29.70
2022-12-11T20:09:14.221Z,26.77
2022-12-11T20:11:42.002Z,32.10
2022-12-11T20:14:09.014Z,23.92
2022-12-11T20:19:22.494Z,21.08
2022-12-11T20:21:49.298Z,20.95
2022-12-11T20:24:15.986Z,22.63
2022-12-11T20:26:42.755Z,22.50
2022-12-11T20:29:09.488Z,21.02
2022-12-11T20:31:36.875Z,20.80
2022-12-11T20:34:03.989Z,20.90
2022-12-11T20:36:30.893Z,17.90
2022-12-11T20:38:57.734Z,18.17
2022-12-11T20:41:26.192Z,15.88
2022-12-11T20:43:56.384Z,19.27
2022-12-11T20:46:25.354Z,19.17
2022-12-11T20:48:52.531Z,21.02
2022-12-11T20:51:25.651Z,23.50
2022-12-11T20:53:59.322Z,23.20
2022-12-11T20:56:30.404Z,22.30
2022-12-11T20:58:57.589Z,23.85
2022-12-11T21:01:25.235Z,22.83
2022-12-11T21:03:53.496Z,22.42
2022-12-11T21:06:21.784Z,20.85
2022-12-11T21:08:48.690Z,21.38
2022-12-11T21:11:21.628Z,24.60
2022-12-11T21:13:48.472Z,21.40
2022-12-11T21:16:15.278Z,20.83
2022-12-11T21:18:43.559Z,20.90
2022-12-11T21:21:10.629Z,21.85
2022-12-11T21:23:40.617Z,20.08
2022-12-11T21:28:48.562Z,23.58
2022-12-11T21:31:16.936Z,22.05
2022-12-11T21:33:43.678Z,19.90
2022-12-11T21:36:17.012Z,21.63
2022-12-11T21:38:56.364Z,22.77
2022-12-11T21:41:24.076Z,20.48
2022-12-11T21:45:03.422Z,21.58
2022-12-11T21:46:38.939Z,19.58
2022-12-11T21:49:06.004Z,22.35
2022-12-11T21:51:40.241Z,20.63
2022-12-11T21:54:17.934Z,20.63
2022-12-11T21:56:45.583Z,21.55
2022-12-11T21:59:12.517Z,20.45
2022-12-11T22:01:42.369Z,22.35
2022-12-11T22:04:09.816Z,22.52
2022-12-11T22:06:36.713Z,20.48
2022-12-11T22:09:04.294Z,21.98
2022-12-11T22:11:32.065Z,20.67
2022-12-11T22:13:59.126Z,23.40
2022-12-11T22:16:25.943Z,23.25
2022-12-11T22:18:52.662Z,26.00
2022-12-11T22:21:19.575Z,21.58
2022-12-11T22:23:46.384Z,22.63
2022-12-11T22:26:17.459Z,21.77
2022-12-11T22:28:44.240Z,21.33
2022-12-11T22:31:12.432Z,17.23
2022-12-11T22:33:39.311Z,21.05
2022-12-11T22:36:06.794Z,20.70
2022-12-11T22:38:34.610Z,19.88
2022-12-11T22:41:03.203Z,21.85
2022-12-11T22:43:29.867Z,20.70
2022-12-11T22:45:56.671Z,20.30
2022-12-11T22:48:27.429Z,21.63
2022-12-11T22:50:54.669Z,22.10
2022-12-11T22:53:21.603Z,20.17
2022-12-11T22:55:48.361Z,21.13
2022-12-11T22:58:20.186Z,20.52
2022-12-11T23:00:48.537Z,19.67
2022-12-11T23:03:15.470Z,16.38
2022-12-11T23:05:43.407Z,16.77
2022-12-11T23:08:10.532Z,19.60
2022-12-11T23:10:39.918Z,19.63
2022-12-11T23:13:06.764Z,19.70
2022-12-11T23:15:33.423Z,20.70
2022-12-11T23:18:00.036Z,17.50
2022-12-11T23:20:27.287Z,18.52
2022-12-11T23:22:53.913Z,19.50
2022-12-11T23:25:20.620Z,18.60
2022-12-11T23:27:56.150Z,19.55
2022-12-11T23:30:24.140Z,19.13
2022-12-11T23:32:50.988Z,17.30
2022-12-11T23:35:17.573Z,18.83
2022-12-11T23:37:44.246Z,18.52
2022-12-11T23:40:11.281Z,16.77
2022-12-11T23:42:37.885Z,17.58
2022-12-11T23:45:04.836Z,17.65
2022-12-11T23:47:31.595Z,17.00
2022-12-11T23:49:58.399Z,17.30
2022-12-11T23:52:26.736Z,16.67
2022-12-11T23:54:55.438Z,17.65
2022-12-11T23:57:22.161Z,17.55
2022-12-11T23:59:49.031Z,22.15
